createdAt,value
2023-04-16T00:00:09.766Z,3.80
2023-04-16T00:01:21.202Z,2.70
2023-04-16T00:02:32.736Z,1.35
2023-04-16T00:03:44.452Z,2.38
2023-04-16T00:04:56.194Z,2.08
2023-04-16T00:06:07.681Z,2.28
2023-04-16T00:07:19.076Z,2.55
2023-04-16T00:08:30.550Z,3.72
2023-04-16T00:09:41.960Z,1.88
2023-04-16T00:10:53.535Z,5.70
2023-04-16T00:12:06.183Z,1.65
2023-04-16T00:13:17.726Z,2.58
2023-04-16T00:14:29.565Z,2.97
2023-04-16T00:15:41.017Z,5.50
2023-04-16T00:16:52.504Z,9.38
2023-04-16T00:18:04.003Z,21.48
2023-04-16T00:19:15.493Z,30.88
2023-04-16T00:20:26.943Z,36.78
2023-04-16T00:21:38.481Z,39.85
2023-04-16T00:22:49.947Z,41.22
2023-04-16T00:24:01.433Z,26.00
2023-04-16T00:25:13.630Z,23.33
2023-04-16T00:26:25.082Z,18.65
2023-04-16T00:27:36.482Z,18.88
2023-04-16T00:28:47.968Z,6.35
2023-04-16T00:29:59.383Z,9.48
2023-04-16T00:31:11.058Z,9.48
2023-04-16T00:32:22.626Z,4.88
2023-04-16T00:33:34.199Z,3.33
2023-04-16T00:34:45.627Z,3.47
2023-04-16T00:35:57.212Z,5.85
2023-04-16T00:37:08.678Z,1.85
2023-04-16T00:38:20.160Z,2.65
2023-04-16T00:39:31.616Z,3.50
2023-04-16T00:40:43.142Z,1.85
2023-04-16T00:41:54.664Z,4.57
2023-04-16T00:43:06.230Z,2.63
2023-04-16T00:44:17.698Z,3.47
2023-04-16T00:45:29.200Z,6.50
2023-04-16T00:46:41.973Z,6.80
2023-04-16T00:47:53.550Z,6.57
2023-04-16T00:49:05.148Z,5.45
2023-04-16T00:50:17.700Z,9.85
2023-04-16T00:51:29.533Z,3.22
2023-04-16T00:52:41.075Z,2.60
2023-04-16T00:53:52.626Z,1.98
2023-04-16T00:55:04.812Z,5.75
2023-04-16T00:56:17.659Z,2.75
2023-04-16T00:57:29.287Z,4.93
2023-04-16T00:58:41.082Z,6.53
2023-04-16T00:59:52.583Z,7.40
2023-04-16T01:01:04.170Z,3.85
2023-04-16T01:02:16.232Z,5.57
2023-04-16T01:03:34.184Z,5.63
2023-04-16T01:04:45.778Z,2.83
2023-04-16T01:05:57.228Z,5.03
2023-04-16T01:07:09.016Z,6.22
2023-04-16T01:08:21.507Z,2.75
2023-04-16T01:09:32.901Z,2.80
2023-04-16T01:10:46.702Z,2.58
2023-04-16T01:11:58.133Z,1.20
2023-04-16T01:13:10.027Z,2.60
2023-04-16T01:14:21.463Z,1.33
2023-04-16T01:15:33.051Z,1.42
2023-04-16T01:16:44.479Z,4.20
2023-04-16T01:17:56.037Z,1.35
2023-04-16T01:19:07.937Z,4.82
2023-04-16T01:20:19.558Z,2.65
2023-04-16T01:21:33.125Z,3.35
2023-04-16T01:22:44.590Z,2.92
2023-04-16T01:23:56.119Z,4.90
2023-04-16T01:25:07.670Z,4.03
2023-04-16T01:26:19.137Z,2.58
2023-04-16T01:27:31.259Z,3.78
2023-04-16T01:28:42.737Z,4.38
2023-04-16T01:29:56.236Z,4.57
2023-04-16T01:31:10.548Z,3.47
2023-04-16T01:32:22.169Z,2.20
2023-04-16T01:33:33.584Z,1.92
2023-04-16T01:34:45.025Z,2.53
2023-04-16T01:35:56.496Z,3.85
2023-04-16T01:37:08.040Z,8.35
2023-04-16T01:38:19.536Z,5.85
2023-04-16T01:39:31.040Z,6.38
2023-04-16T01:40:42.425Z,4.75
2023-04-16T01:41:53.892Z,2.63
2023-04-16T01:43:05.359Z,2.78
2023-04-16T01:44:16.884Z,2.97
2023-04-16T01:45:28.336Z,2.67
2023-04-16T01:46:39.904Z,2.60
2023-04-16T01:47:51.934Z,1.90
2023-04-16T01:49:04.372Z,3.30
2023-04-16T01:50:16.047Z,1.25
2023-04-16T01:51:28.135Z,1.48
2023-04-16T01:52:39.775Z,4.65
2023-04-16T01:53:51.421Z,3.75
2023-04-16T01:55:03.605Z,4.05
2023-04-16T01:56:15.088Z,5.65
2023-04-16T01:57:26.513Z,5.35
2023-04-16T01:58:38.540Z,2.58
2023-04-16T01:59:49.995Z,3.70
2023-04-16T02:01:01.589Z,5.00
2023-04-16T02:02:14.754Z,7.43
2023-04-16T02:03:26.367Z,11.48
2023-04-16T02:04:38.519Z,12.10
2023-04-16T02:05:50.468Z,11.52
2023-04-16T02:07:01.869Z,7.03
2023-04-16T02:08:13.268Z,5.75
2023-04-16T02:09:24.845Z,6.63
2023-04-16T02:10:36.248Z,7.57
2023-04-16T02:11:47.687Z,5.95
2023-04-16T02:12:59.118Z,5.32
2023-04-16T02:14:10.647Z,2.65
2023-04-16T02:15:22.931Z,4.38
2023-04-16T02:16:34.403Z,6.38
2023-04-16T02:17:46.786Z,3.50
2023-04-16T02:18:58.302Z,2.95
2023-04-16T02:20:10.908Z,3.25
2023-04-16T02:21:22.437Z,5.75
2023-04-16T02:22:33.873Z,2.60
2023-04-16T02:23:51.506Z,4.00
2023-04-16T02:25:03.056Z,4.30
2023-04-16T02:26:14.544Z,2.88
2023-04-16T02:27:26.115Z,1.77
2023-04-16T02:28:37.588Z,2.50
2023-04-16T02:29:48.985Z,4.63
2023-04-16T02:31:00.635Z,3.08
2023-04-16T02:32:12.155Z,7.40
2023-04-16T02:33:26.291Z,2.30
2023-04-16T02:34:39.981Z,2.42
2023-04-16T02:35:51.429Z,3.90
2023-04-16T02:37:02.869Z,6.93
2023-04-16T02:38:14.301Z,5.95
2023-04-16T02:39:25.962Z,7.03
2023-04-16T02:40:37.411Z,7.90
2023-04-16T02:41:49.497Z,6.28
2023-04-16T02:43:02.513Z,4.00
2023-04-16T02:44:13.956Z,7.50
2023-04-16T02:45:25.428Z,6.65
2023-04-16T02:46:36.892Z,4.57
2023-04-16T02:47:48.958Z,4.00
2023-04-16T02:49:00.663Z,5.22
2023-04-16T02:50:12.414Z,6.75
2023-04-16T02:51:23.826Z,5.78
2023-04-16T02:52:35.278Z,8.40
2023-04-16T02:53:46.786Z,8.30
2023-04-16T02:54:58.270Z,3.45
2023-04-16T02:56:09.694Z,6.75
2023-04-16T02:57:21.086Z,5.03
2023-04-16T02:58:32.559Z,4.47
2023-04-16T02:59:43.967Z,4.70
2023-04-16T03:00:55.412Z,8.25
2023-04-16T03:02:06.935Z,5.40
2023-04-16T03:03:18.542Z,6.55
2023-04-16T03:04:30.131Z,4.35
2023-04-16T03:05:41.647Z,3.20
2023-04-16T03:06:53.063Z,6.00
2023-04-16T03:08:04.563Z,4.78
2023-04-16T03:09:16.093Z,5.70
2023-04-16T03:10:27.562Z,12.48
2023-04-16T03:11:38.978Z,5.95
2023-04-16T03:12:50.540Z,4.47
2023-04-16T03:14:01.961Z,4.10
2023-04-16T03:15:13.472Z,7.90
2023-04-16T03:16:24.931Z,4.85
2023-04-16T03:17:36.472Z,2.72
2023-04-16T03:18:47.991Z,9.30
2023-04-16T03:19:59.416Z,5.57
2023-04-16T03:21:11.119Z,4.53
2023-04-16T03:22:22.671Z,8.48
2023-04-16T03:23:34.400Z,7.40
2023-04-16T03:24:45.965Z,8.45
2023-04-16T03:25:57.367Z,11.40
2023-04-16T03:27:08.856Z,8.75
2023-04-16T03:28:20.482Z,9.27
2023-04-16T03:29:31.898Z,14.90
2023-04-16T03:30:43.312Z,14.23
2023-04-16T03:31:54.765Z,8.15
2023-04-16T03:33:06.184Z,11.02
2023-04-16T03:34:17.621Z,12.32
2023-04-16T03:35:29.088Z,10.73
2023-04-16T03:36:40.742Z,7.22
2023-04-16T03:37:52.200Z,7.68
2023-04-16T03:39:03.838Z,7.90
2023-04-16T03:40:15.585Z,7.25
2023-04-16T03:41:27.074Z,6.28
2023-04-16T03:42:38.505Z,5.47
2023-04-16T03:43:49.946Z,4.93
2023-04-16T03:45:01.451Z,4.93
2023-04-16T03:46:12.886Z,5.45
2023-04-16T03:47:24.369Z,4.15
2023-04-16T03:48:36.651Z,4.88
2023-04-16T03:49:48.132Z,8.85
2023-04-16T03:50:59.527Z,6.72
2023-04-16T03:52:11.442Z,6.47
2023-04-16T03:53:22.927Z,7.05
2023-04-16T03:54:34.332Z,11.55
2023-04-16T03:55:45.748Z,14.18
2023-04-16T03:56:57.128Z,17.23
2023-04-16T03:58:08.626Z,13.23
2023-04-16T03:59:20.055Z,5.30
2023-04-16T04:00:31.550Z,7.68
2023-04-16T04:01:43.038Z,5.55
2023-04-16T04:02:54.648Z,11.48
2023-04-16T04:04:06.435Z,4.95
2023-04-16T04:05:17.964Z,5.35
2023-04-16T04:06:29.439Z,9.95
2023-04-16T04:07:40.894Z,7.63
2023-04-16T04:08:52.358Z,6.78
2023-04-16T04:10:04.066Z,4.90
2023-04-16T04:11:15.761Z,5.53
2023-04-16T04:12:27.551Z,5.63
2023-04-16T04:13:39.068Z,5.65
2023-04-16T04:14:50.864Z,8.25
2023-04-16T04:16:02.391Z,6.22
2023-04-16T04:17:13.939Z,5.50
2023-04-16T04:18:25.661Z,9.32
2023-04-16T04:19:40.293Z,16.08
2023-04-16T04:20:53.905Z,15.63
2023-04-16T04:22:05.340Z,7.35
2023-04-16T04:23:16.778Z,5.90
2023-04-16T04:24:28.186Z,6.88
2023-04-16T04:25:39.585Z,5.03
2023-04-16T04:26:50.995Z,6.10
2023-04-16T04:28:02.445Z,6.63
2023-04-16T04:29:13.980Z,5.85
2023-04-16T04:30:25.421Z,66.25
2023-04-16T04:31:36.962Z,72.25
2023-04-16T04:32:48.538Z,72.65
2023-04-16T04:34:01.927Z,22.90
2023-04-16T04:35:13.418Z,11.65
2023-04-16T04:36:24.856Z,6.95
2023-04-16T04:37:36.278Z,6.18
2023-04-16T04:38:47.796Z,5.43
2023-04-16T04:39:59.315Z,6.25
2023-04-16T04:41:10.912Z,8.20
2023-04-16T04:42:22.446Z,6.97
2023-04-16T04:43:33.968Z,14.38
2023-04-16T04:44:45.554Z,11.32
2023-04-16T04:45:57.030Z,21.83
2023-04-16T04:47:08.504Z,36.88
2023-04-16T04:48:19.966Z,28.02
2023-04-16T04:49:31.963Z,11.48
2023-04-16T04:50:44.882Z,8.10
2023-04-16T04:51:56.582Z,61.67
2023-04-16T04:53:10.352Z,14.98
2023-04-16T04:54:21.823Z,5.95
2023-04-16T04:55:33.335Z,8.63
2023-04-16T04:56:47.840Z,4.32
2023-04-16T04:57:59.251Z,17.48
2023-04-16T04:59:11.082Z,14.43
2023-04-16T05:00:22.701Z,6.72
2023-04-16T05:01:34.238Z,7.45
2023-04-16T05:02:45.921Z,4.22
2023-04-16T05:03:57.442Z,6.68
2023-04-16T05:05:09.192Z,9.52
2023-04-16T05:06:20.807Z,4.85
2023-04-16T05:07:32.283Z,6.50
2023-04-16T05:08:43.740Z,4.65
2023-04-16T05:09:55.427Z,7.32
2023-04-16T05:11:06.861Z,7.90
2023-04-16T05:12:18.248Z,5.88
2023-04-16T05:13:29.690Z,4.88
2023-04-16T05:14:41.209Z,10.63
2023-04-16T05:15:52.671Z,7.60
2023-04-16T05:17:04.244Z,4.40
2023-04-16T05:18:15.856Z,6.13
2023-04-16T05:19:27.361Z,7.35
2023-04-16T05:20:38.820Z,4.50
2023-04-16T05:21:50.383Z,11.18
2023-04-16T05:23:01.820Z,5.72
2023-04-16T05:24:15.013Z,6.70
2023-04-16T05:25:26.683Z,8.20
2023-04-16T05:26:38.133Z,5.03
2023-04-16T05:27:49.698Z,6.13
2023-04-16T05:29:01.440Z,8.18
2023-04-16T05:30:12.970Z,8.02
2023-04-16T05:31:24.456Z,7.28
2023-04-16T05:32:36.061Z,4.50
2023-04-16T05:33:47.524Z,6.05
2023-04-16T05:34:58.987Z,5.78
2023-04-16T05:36:10.656Z,4.63
2023-04-16T05:37:22.104Z,4.75
2023-04-16T05:38:33.572Z,4.95
2023-04-16T05:39:44.966Z,3.50
2023-04-16T05:40:56.510Z,3.10
2023-04-16T05:42:08.021Z,6.07
2023-04-16T05:43:19.478Z,6.80
2023-04-16T05:44:31.001Z,6.38
2023-04-16T05:45:42.526Z,8.38
2023-04-16T05:46:53.985Z,9.70
2023-04-16T05:48:06.126Z,14.70
2023-04-16T05:49:18.944Z,6.00
2023-04-16T05:50:30.416Z,6.78
2023-04-16T05:51:42.086Z,3.72
2023-04-16T05:52:53.567Z,4.28
2023-04-16T05:54:05.025Z,8.15
2023-04-16T05:55:16.625Z,6.78
2023-04-16T05:56:28.364Z,5.82
2023-04-16T05:57:46.828Z,4.65
2023-04-16T05:58:58.286Z,4.72
2023-04-16T06:00:10.025Z,3.20
2023-04-16T06:01:22.811Z,4.50
2023-04-16T06:02:34.367Z,6.15
2023-04-16T06:03:46.162Z,4.22
2023-04-16T06:04:57.744Z,5.85
2023-04-16T06:06:09.430Z,6.07
2023-04-16T06:07:20.989Z,3.65
2023-04-16T06:08:32.461Z,2.97
2023-04-16T06:09:44.730Z,6.85
2023-04-16T06:10:56.654Z,4.68
2023-04-16T06:12:08.097Z,7.05
2023-04-16T06:13:19.588Z,7.00
2023-04-16T06:14:31.093Z,5.25
2023-04-16T06:15:42.617Z,6.03
2023-04-16T06:16:54.087Z,7.55
2023-04-16T06:18:05.690Z,5.78
2023-04-16T06:19:17.151Z,4.40
2023-04-16T06:20:28.813Z,5.22
2023-04-16T06:21:40.259Z,4.38
2023-04-16T06:22:51.732Z,3.53
2023-04-16T06:24:03.203Z,4.05
2023-04-16T06:25:16.238Z,7.15
2023-04-16T06:26:29.039Z,5.90
2023-04-16T06:27:40.494Z,4.90
2023-04-16T06:28:52.024Z,5.13
2023-04-16T06:30:03.574Z,1.90
2023-04-16T06:31:15.130Z,5.22
2023-04-16T06:32:26.709Z,1.95
2023-04-16T06:33:38.204Z,5.53
2023-04-16T06:34:49.735Z,3.15
2023-04-16T06:36:01.189Z,8.83
2023-04-16T06:37:12.835Z,1.40
2023-04-16T06:38:24.511Z,4.50
2023-04-16T06:39:36.223Z,4.07
2023-04-16T06:40:48.654Z,2.77
2023-04-16T06:42:00.285Z,2.35
2023-04-16T06:43:11.894Z,4.67
2023-04-16T06:44:23.338Z,1.60
2023-04-16T06:45:34.893Z,6.87
2023-04-16T06:46:46.362Z,4.70
2023-04-16T06:47:59.755Z,4.17
2023-04-16T06:49:11.550Z,6.40
2023-04-16T06:50:23.460Z,3.40
2023-04-16T06:51:35.081Z,3.40
2023-04-16T06:52:46.532Z,4.60
2023-04-16T06:53:57.964Z,1.67
2023-04-16T06:55:10.005Z,9.07
2023-04-16T06:56:21.531Z,3.77
2023-04-16T06:57:33.621Z,4.47
2023-04-16T06:58:46.246Z,3.43
2023-04-16T06:59:57.677Z,1.73
2023-04-16T07:01:10.272Z,2.90
2023-04-16T07:02:21.907Z,2.27
2023-04-16T07:03:34.717Z,3.50
2023-04-16T07:04:46.425Z,2.20
2023-04-16T07:05:57.924Z,6.03
2023-04-16T07:07:09.596Z,3.27
2023-04-16T07:08:21.085Z,8.83
2023-04-16T07:09:32.491Z,3.63
2023-04-16T07:10:44.012Z,1.73
2023-04-16T07:11:55.696Z,1.90
2023-04-16T07:13:07.162Z,6.60
2023-04-16T07:14:18.595Z,1.27
2023-04-16T07:15:33.271Z,2.97
2023-04-16T07:16:44.798Z,3.33
2023-04-16T07:17:57.552Z,3.07
2023-04-16T07:19:09.468Z,5.87
2023-04-16T07:20:21.494Z,3.57
2023-04-16T07:21:32.970Z,5.00
2023-04-16T07:22:44.513Z,6.90
2023-04-16T07:23:56.013Z,5.13
2023-04-16T07:25:07.758Z,3.70
2023-04-16T07:26:19.250Z,3.23
2023-04-16T07:27:30.637Z,1.60
2023-04-16T07:28:42.099Z,2.53
2023-04-16T07:29:54.862Z,2.33
2023-04-16T07:31:06.417Z,3.67
2023-04-16T07:32:20.144Z,2.90
2023-04-16T07:33:31.713Z,3.87
2023-04-16T07:34:43.411Z,12.43
2023-04-16T07:35:54.853Z,5.97
2023-04-16T07:37:06.367Z,4.43
2023-04-16T07:38:17.762Z,5.67
2023-04-16T07:39:29.201Z,7.13
2023-04-16T07:40:40.777Z,4.27
2023-04-16T07:41:52.256Z,4.43
2023-04-16T07:43:06.282Z,2.13
2023-04-16T07:44:17.841Z,5.93
2023-04-16T07:45:29.294Z,1.80
2023-04-16T07:46:47.090Z,2.17
2023-04-16T07:47:59.200Z,2.20
2023-04-16T07:49:10.864Z,3.60
2023-04-16T07:50:22.464Z,17.70
2023-04-16T07:51:33.953Z,4.73
2023-04-16T07:52:47.797Z,4.13
2023-04-16T07:53:59.319Z,5.00
2023-04-16T07:55:13.916Z,3.23
2023-04-16T07:56:25.950Z,8.00
2023-04-16T07:57:37.545Z,5.30
2023-04-16T07:58:49.127Z,7.60
2023-04-16T08:00:02.284Z,4.00
2023-04-16T08:01:13.887Z,2.23
2023-04-16T08:02:25.589Z,2.63
2023-04-16T08:03:37.322Z,8.63
2023-04-16T08:04:49.163Z,1.73
2023-04-16T08:06:00.944Z,1.80
2023-04-16T08:07:12.380Z,4.80
2023-04-16T08:08:23.875Z,2.90
2023-04-16T08:09:46.878Z,1.87
2023-04-16T08:10:58.606Z,4.73
2023-04-16T08:12:10.040Z,2.10
2023-04-16T08:13:24.229Z,3.33
2023-04-16T08:14:36.375Z,6.93
2023-04-16T08:15:47.944Z,2.10
2023-04-16T08:16:59.365Z,4.27
2023-04-16T08:18:15.536Z,5.93
2023-04-16T08:19:27.041Z,1.33
2023-04-16T08:20:39.080Z,3.23
2023-04-16T08:21:50.586Z,3.80
2023-04-16T08:23:02.007Z,7.23
2023-04-16T08:24:13.521Z,6.50
2023-04-16T08:25:25.048Z,4.83
2023-04-16T08:26:36.511Z,5.17
2023-04-16T08:27:49.072Z,4.43
2023-04-16T08:29:00.500Z,5.17
2023-04-16T08:30:12.230Z,4.40
2023-04-16T08:31:26.146Z,4.77
2023-04-16T08:32:37.853Z,5.73
2023-04-16T08:33:49.323Z,4.27
2023-04-16T08:35:00.919Z,4.63
2023-04-16T08:36:12.398Z,3.97
2023-04-16T08:37:24.954Z,2.13
2023-04-16T08:38:36.420Z,4.63
2023-04-16T08:39:47.872Z,3.80
2023-04-16T08:41:02.686Z,3.83
2023-04-16T08:42:32.160Z,3.93
2023-04-16T08:43:44.593Z,2.47
2023-04-16T08:45:02.984Z,7.40
2023-04-16T08:46:16.564Z,1.50
2023-04-16T08:47:29.166Z,2.90
2023-04-16T08:48:42.065Z,10.23
2023-04-16T08:49:57.960Z,8.50
2023-04-16T08:51:10.922Z,5.10
2023-04-16T08:52:23.448Z,4.30
2023-04-16T08:54:07.299Z,1.90
2023-04-16T08:55:23.660Z,2.20
2023-04-16T08:56:36.969Z,2.57
2023-04-16T08:57:50.560Z,3.20
2023-04-16T08:59:05.256Z,4.30
2023-04-16T09:00:16.953Z,3.07
2023-04-16T09:01:28.616Z,3.17
2023-04-16T09:02:40.741Z,4.17
2023-04-16T09:03:52.608Z,3.83
2023-04-16T09:05:06.260Z,3.10
2023-04-16T09:06:18.420Z,3.33
2023-04-16T09:07:30.523Z,2.70
2023-04-16T09:08:43.240Z,1.40
2023-04-16T09:09:54.797Z,5.00
2023-04-16T09:11:06.282Z,3.40
2023-04-16T09:12:17.730Z,3.00
2023-04-16T09:13:29.185Z,1.87
2023-04-16T09:14:41.969Z,2.37
2023-04-16T09:15:53.802Z,3.47
2023-04-16T09:17:06.437Z,4.73
2023-04-16T09:18:17.983Z,3.20
2023-04-16T09:19:29.491Z,1.30
2023-04-16T09:20:40.892Z,3.93
2023-04-16T09:21:52.549Z,3.00
2023-04-16T09:23:04.215Z,3.43
2023-04-16T09:24:16.585Z,5.13
2023-04-16T09:25:28.594Z,5.07
2023-04-16T09:26:41.795Z,2.80
2023-04-16T09:27:53.276Z,4.60
2023-04-16T09:29:04.714Z,2.77
2023-04-16T09:30:21.730Z,2.67
2023-04-16T09:31:33.489Z,2.83
2023-04-16T09:32:45.001Z,4.13
2023-04-16T09:34:07.587Z,7.20
2023-04-16T09:35:19.608Z,2.00
2023-04-16T09:36:32.547Z,2.23
2023-04-16T09:37:44.012Z,0.67
2023-04-16T09:38:57.607Z,2.87
2023-04-16T09:40:09.781Z,4.20
2023-04-16T09:41:28.365Z,3.87
2023-04-16T09:42:41.944Z,1.87
2023-04-16T09:43:57.471Z,5.40
2023-04-16T09:45:09.068Z,8.53
2023-04-16T09:46:20.731Z,4.13
2023-04-16T09:47:39.214Z,2.40
2023-04-16T09:48:50.979Z,3.87
2023-04-16T09:50:02.476Z,2.93
2023-04-16T09:51:13.943Z,1.87
2023-04-16T09:52:25.964Z,7.83
2023-04-16T09:53:37.452Z,5.30
2023-04-16T09:54:53.168Z,0.90
2023-04-16T09:56:09.368Z,2.77
2023-04-16T09:57:22.005Z,3.37
2023-04-16T09:58:38.424Z,4.00
2023-04-16T10:00:01.717Z,2.27
2023-04-16T10:01:13.376Z,4.43
2023-04-16T10:02:28.616Z,2.43
2023-04-16T10:03:41.018Z,4.67
2023-04-16T10:04:53.280Z,2.13
2023-04-16T10:06:07.989Z,2.30
2023-04-16T10:07:19.745Z,1.63
2023-04-16T10:08:31.213Z,5.13
2023-04-16T10:09:42.858Z,3.00
2023-04-16T10:10:54.448Z,4.90
2023-04-16T10:12:06.827Z,3.80
2023-04-16T10:13:19.239Z,2.37
2023-04-16T10:14:30.814Z,2.90
2023-04-16T10:15:42.268Z,4.20
2023-04-16T10:16:53.967Z,4.70
2023-04-16T10:18:06.157Z,3.30
2023-04-16T10:19:17.758Z,2.37
2023-04-16T10:20:29.423Z,3.40
2023-04-16T10:21:40.947Z,2.60
2023-04-16T10:22:54.193Z,2.77
2023-04-16T10:24:05.936Z,4.30
2023-04-16T10:25:17.991Z,6.83
2023-04-16T10:26:30.058Z,3.90
2023-04-16T10:27:41.635Z,3.77
2023-04-16T10:28:53.615Z,5.47
2023-04-16T10:30:06.128Z,2.87
2023-04-16T10:31:17.746Z,1.57
2023-04-16T10:32:31.468Z,2.47
2023-04-16T10:33:44.306Z,2.93
2023-04-16T10:34:55.914Z,5.73
2023-04-16T10:36:08.618Z,7.37
2023-04-16T10:37:20.072Z,5.37
2023-04-16T10:38:32.617Z,4.60
2023-04-16T10:39:44.679Z,5.70
2023-04-16T10:41:03.813Z,4.47
2023-04-16T10:42:15.489Z,2.87
2023-04-16T10:43:28.183Z,2.97
2023-04-16T10:44:42.025Z,3.07
2023-04-16T10:45:56.646Z,4.17
2023-04-16T10:47:14.490Z,3.30
2023-04-16T10:48:27.458Z,3.00
2023-04-16T10:49:43.594Z,3.43
2023-04-16T10:50:57.293Z,1.90
2023-04-16T10:52:17.284Z,2.67
2023-04-16T10:53:28.926Z,2.07
2023-04-16T10:54:41.129Z,2.77
2023-04-16T10:56:05.558Z,3.40
2023-04-16T10:57:18.337Z,4.43
2023-04-16T10:58:31.016Z,5.17
2023-04-16T10:59:42.938Z,6.83
2023-04-16T11:00:54.459Z,3.30
2023-04-16T11:02:13.711Z,5.73
2023-04-16T11:03:25.984Z,1.83
2023-04-16T11:04:38.473Z,1.30
2023-04-16T11:05:50.144Z,1.33
2023-04-16T11:07:03.153Z,1.60
2023-04-16T11:08:16.121Z,0.50
2023-04-16T11:09:50.471Z,4.40
2023-04-16T11:11:04.791Z,4.37
2023-04-16T11:12:18.642Z,4.97
2023-04-16T11:13:30.649Z,5.80
2023-04-16T11:14:42.973Z,3.33
2023-04-16T11:15:56.543Z,0.87
2023-04-16T11:17:08.256Z,1.77
2023-04-16T11:18:20.067Z,3.30
2023-04-16T11:19:31.531Z,3.07
2023-04-16T11:20:43.087Z,4.50
2023-04-16T11:21:54.918Z,5.20
2023-04-16T11:23:10.618Z,1.47
2023-04-16T11:24:22.592Z,4.17
2023-04-16T11:25:34.961Z,4.27
2023-04-16T11:26:50.961Z,3.00
2023-04-16T11:28:02.648Z,4.53
2023-04-16T11:29:15.031Z,6.10
2023-04-16T11:30:33.331Z,1.60
2023-04-16T11:31:51.768Z,3.50
2023-04-16T11:33:03.900Z,5.63
2023-04-16T11:34:16.848Z,2.10
2023-04-16T11:35:28.398Z,5.53
2023-04-16T11:36:46.319Z,3.63
2023-04-16T11:37:58.113Z,2.27
2023-04-16T11:39:12.134Z,5.30
2023-04-16T11:40:23.837Z,4.00
2023-04-16T11:41:35.814Z,4.17
2023-04-16T11:42:47.249Z,10.67
2023-04-16T11:43:58.720Z,4.50
2023-04-16T11:45:11.031Z,8.87
2023-04-16T11:46:27.314Z,2.90
2023-04-16T11:47:43.651Z,4.03
2023-04-16T11:48:56.197Z,5.00
2023-04-16T11:50:17.763Z,7.43
2023-04-16T11:51:29.872Z,8.40
2023-04-16T11:52:41.269Z,4.23
2023-04-16T11:53:53.625Z,6.20
2023-04-16T11:55:05.720Z,14.40
2023-04-16T11:56:25.521Z,6.23
2023-04-16T11:57:38.534Z,6.90
2023-04-16T11:59:05.730Z,7.27
2023-04-16T12:00:18.406Z,4.77
2023-04-16T12:01:29.943Z,2.87
2023-04-16T12:02:41.625Z,3.50
2023-04-16T12:04:03.291Z,13.50
2023-04-16T12:05:31.142Z,7.67
2023-04-16T12:07:01.550Z,7.07
2023-04-16T12:08:13.042Z,6.93
2023-04-16T12:09:27.583Z,2.57
2023-04-16T12:10:55.197Z,4.47
2023-04-16T12:12:06.836Z,7.57
2023-04-16T12:13:18.540Z,4.90
2023-04-16T12:14:30.834Z,4.80
2023-04-16T12:15:46.404Z,5.80
2023-04-16T12:17:16.520Z,4.77
2023-04-16T12:18:28.139Z,4.53
2023-04-16T12:19:48.366Z,4.33
2023-04-16T12:21:04.514Z,2.37
2023-04-16T12:22:16.152Z,5.60
2023-04-16T12:23:28.686Z,4.50
2023-04-16T12:24:40.122Z,7.23
2023-04-16T12:25:52.194Z,6.97
2023-04-16T12:27:06.844Z,3.70
2023-04-16T12:28:47.723Z,5.10
2023-04-16T12:30:06.589Z,5.07
2023-04-16T12:31:18.090Z,8.47
2023-04-16T12:32:29.561Z,2.93
2023-04-16T12:33:42.491Z,7.13
2023-04-16T12:34:54.049Z,7.23
2023-04-16T12:36:18.572Z,8.40
2023-04-16T12:37:30.059Z,9.53
2023-04-16T12:38:41.621Z,5.77
2023-04-16T12:39:53.239Z,3.50
2023-04-16T12:41:06.397Z,5.10
2023-04-16T12:42:17.942Z,5.93
2023-04-16T12:43:29.378Z,9.53
2023-04-16T12:44:40.872Z,5.60
2023-04-16T12:45:52.402Z,8.43
2023-04-16T12:47:05.702Z,3.70
2023-04-16T12:48:17.300Z,2.17
2023-04-16T12:49:28.720Z,5.30
2023-04-16T12:50:40.279Z,11.13
2023-04-16T12:51:51.848Z,10.87
2023-04-16T12:53:03.650Z,9.97
2023-04-16T12:54:15.116Z,9.60
2023-04-16T12:55:26.782Z,8.97
2023-04-16T12:56:39.410Z,9.43
2023-04-16T12:57:52.771Z,6.13
2023-04-16T12:59:04.924Z,7.20
2023-04-16T13:00:16.547Z,8.87
2023-04-16T13:01:28.035Z,5.33
2023-04-16T13:02:40.100Z,3.60
2023-04-16T13:03:51.756Z,9.17
2023-04-16T13:05:03.426Z,5.70
2023-04-16T13:06:15.736Z,7.50
2023-04-16T13:07:28.232Z,4.67
2023-04-16T13:08:40.164Z,4.63
2023-04-16T13:09:54.315Z,5.90
2023-04-16T13:11:06.330Z,6.77
2023-04-16T13:12:17.870Z,4.37
2023-04-16T13:13:29.306Z,7.60
2023-04-16T13:14:42.441Z,4.27
2023-04-16T13:15:55.464Z,3.53
2023-04-16T13:17:06.930Z,5.73
2023-04-16T13:18:18.433Z,4.40
2023-04-16T13:19:30.881Z,5.07
2023-04-16T13:20:44.894Z,4.50
2023-04-16T13:21:56.376Z,7.00
2023-04-16T13:23:07.894Z,3.70
2023-04-16T13:24:19.456Z,11.90
2023-04-16T13:25:31.325Z,5.67
2023-04-16T13:26:43.549Z,7.03
2023-04-16T13:27:55.242Z,5.23
2023-04-16T13:29:06.780Z,9.20
2023-04-16T13:30:18.302Z,23.07
2023-04-16T13:31:29.912Z,20.83
2023-04-16T13:32:41.605Z,12.03
2023-04-16T13:33:53.032Z,11.43
2023-04-16T13:35:04.697Z,5.07
2023-04-16T13:36:16.319Z,11.23
2023-04-16T13:37:27.933Z,10.30
2023-04-16T13:38:39.575Z,8.27
2023-04-16T13:39:51.019Z,18.67
2023-04-16T13:41:02.550Z,16.60
2023-04-16T13:42:14.092Z,13.70
2023-04-16T13:43:25.649Z,10.33
2023-04-16T13:44:37.226Z,15.20
2023-04-16T13:45:48.691Z,8.77
2023-04-16T13:47:00.348Z,10.83
2023-04-16T13:48:12.005Z,10.43
2023-04-16T13:49:23.571Z,7.33
2023-04-16T13:50:35.707Z,7.37
2023-04-16T13:51:47.190Z,8.93
2023-04-16T13:52:58.726Z,5.17
2023-04-16T13:54:10.415Z,12.03
2023-04-16T13:55:21.962Z,4.77
2023-04-16T13:56:33.467Z,6.40
2023-04-16T13:57:48.097Z,11.27
2023-04-16T13:58:59.518Z,12.40
2023-04-16T14:00:13.265Z,6.90
2023-04-16T14:01:25.043Z,2.63
2023-04-16T14:02:39.647Z,8.87
2023-04-16T14:03:51.387Z,3.87
2023-04-16T14:05:03.277Z,3.50
2023-04-16T14:06:17.983Z,4.17
2023-04-16T14:07:32.627Z,6.30
2023-04-16T14:08:46.724Z,6.63
2023-04-16T14:09:58.419Z,6.33
2023-04-16T14:11:09.885Z,30.27
2023-04-16T14:12:21.356Z,9.77
2023-04-16T14:13:32.802Z,8.73
2023-04-16T14:14:44.333Z,17.03
2023-04-16T14:15:55.813Z,6.43
2023-04-16T14:17:07.633Z,5.93
2023-04-16T14:18:19.472Z,10.90
2023-04-16T14:19:31.021Z,8.50
2023-04-16T14:20:44.250Z,5.47
2023-04-16T14:21:55.671Z,6.37
2023-04-16T14:23:07.439Z,7.67
2023-04-16T14:24:18.939Z,12.00
2023-04-16T14:25:30.981Z,7.13
2023-04-16T14:26:45.922Z,7.53
2023-04-16T14:27:58.845Z,25.10
2023-04-16T14:29:10.575Z,12.83
2023-04-16T14:30:22.270Z,10.97
2023-04-16T14:31:33.735Z,13.73
2023-04-16T14:32:45.241Z,10.13
2023-04-16T14:33:56.750Z,12.63
2023-04-16T14:35:08.704Z,12.33
2023-04-16T14:36:20.558Z,22.07
2023-04-16T14:37:32.052Z,15.47
2023-04-16T14:38:43.532Z,5.97
2023-04-16T14:39:55.105Z,8.53
2023-04-16T14:41:06.956Z,23.03
2023-04-16T14:42:18.409Z,12.80
2023-04-16T14:43:29.979Z,23.30
2023-04-16T14:44:42.134Z,12.77
2023-04-16T14:45:53.652Z,9.90
2023-04-16T14:47:05.219Z,11.60
2023-04-16T14:48:16.983Z,5.30
2023-04-16T14:49:28.594Z,8.67
2023-04-16T14:50:43.637Z,4.67
2023-04-16T14:51:56.682Z,7.47
2023-04-16T14:53:08.177Z,10.80
2023-04-16T14:54:20.150Z,14.60
2023-04-16T14:55:31.751Z,10.07
2023-04-16T14:56:43.217Z,6.47
2023-04-16T14:57:54.745Z,6.93
2023-04-16T14:59:06.813Z,7.23
2023-04-16T15:00:18.859Z,6.83
2023-04-16T15:01:30.632Z,7.70
2023-04-16T15:02:42.222Z,10.93
2023-04-16T15:03:56.373Z,10.37
2023-04-16T15:05:10.178Z,7.77
2023-04-16T15:06:22.389Z,7.50
2023-04-16T15:07:33.886Z,12.83
2023-04-16T15:08:45.441Z,5.77
2023-04-16T15:09:57.056Z,11.20
2023-04-16T15:11:08.639Z,8.37
2023-04-16T15:12:20.095Z,9.13
2023-04-16T15:13:34.155Z,10.30
2023-04-16T15:14:45.681Z,6.43
2023-04-16T15:15:57.280Z,5.43
2023-04-16T15:17:09.028Z,10.63
2023-04-16T15:18:20.713Z,7.50
2023-04-16T15:19:32.166Z,17.97
2023-04-16T15:20:46.182Z,16.60
2023-04-16T15:21:57.604Z,8.33
2023-04-16T15:23:09.030Z,7.40
2023-04-16T15:24:21.527Z,13.67
2023-04-16T15:25:33.078Z,10.63
2023-04-16T15:26:45.249Z,6.53
2023-04-16T15:27:56.691Z,8.37
2023-04-16T15:29:08.163Z,5.60
2023-04-16T15:30:19.795Z,15.53
2023-04-16T15:31:31.500Z,14.27
2023-04-16T15:32:46.514Z,16.40
2023-04-16T15:33:59.615Z,12.63
2023-04-16T15:35:11.672Z,18.50
2023-04-16T15:36:23.297Z,8.57
2023-04-16T15:37:34.737Z,6.73
2023-04-16T15:38:46.365Z,6.50
2023-04-16T15:39:57.967Z,7.10
2023-04-16T15:41:09.701Z,4.10
2023-04-16T15:42:22.292Z,10.57
2023-04-16T15:43:33.756Z,8.63
2023-04-16T15:44:45.274Z,5.10
2023-04-16T15:45:59.415Z,9.13
2023-04-16T15:47:11.267Z,7.73
2023-04-16T15:48:22.836Z,12.37
2023-04-16T15:49:34.558Z,14.67
2023-04-16T15:50:46.330Z,14.67
2023-04-16T15:51:57.946Z,8.93
2023-04-16T15:53:09.403Z,12.97
2023-04-16T15:54:20.961Z,15.33
2023-04-16T15:55:32.416Z,8.83
2023-04-16T15:56:44.337Z,10.20
2023-04-16T15:57:55.890Z,5.80
2023-04-16T15:59:08.207Z,10.17